Pagrindinis puslapis
METAR-TAF:

METAR-TAF

Oro uostai :

Tan Son Nhat oro uostas

Hošiminas, Vietnamas

platuma: 10-49N, ilguma: 106-40E, Aukštis: 19 m

Dabartinis oras

Ataskaita buvo paskelbta 24 minutes, ne 21:30 UTC
Vėjas 2 kt iš Vakarų/Šiaurės Vakarų
Temperatūra 22°C
Drėgmė 100%
Slėgis 1011 hPa
Matomumas: 7000 m
Mažai debesys ne aukštis 1700 ft

METAR: VVTS 092130Z 30002KT 7000 FEW017 22/22 Q1011 NOSIG

Laikas: 04:54 (21:54 UTC)

Prognozė

Ataskaita buvo paskelbta 4 valandos ir 54 minutes, ne 17:00 UTC
Prognozė galioja nuo 09 metu 18 UTC su 10 metu 24 UTC
Vėjas 3 kt nuo kintamojo kryptimis
Matomumas 10 km arba daugiau
Išsisklaidę debesys ne aukštis 2000 ft
Tapsmas
nuo 10 metu 06 UTC su 10 metu 11 UTC
Vėjas 10 kt iš Šiaurės/Šiaurės Rytų

TAF: VVTS 091700Z 0918/1024 VRB03KT 9999 SCT020 BECMG 1006/1011 02010KT

Orai ataskaitas ir orų prognozės (METAR, TAF).

turimą stotys yra geltonos ir raudonos taškus žemėlapyje.

Perkelti pele per norėdami pamatyti stoties vardą.

Tada spustelėkite, norėdami matyti oro stebėjimo ir prognozės.

Norėdami pakeisti žemėlapį: spustelėkite ant žalios mygtukų su juodo kryžiaus žemyn,; žalią mygtuką su brūkšneliu, jei norite nutolinti; arba žalių rodyklių gretimoms žemėlapius.


METAR-TAF: